Ojai, CA

2:43 AM PDT on March 30, 2015 (GMT -0700)
APRSWXNET Sulpur Mountain CA US | | Change Station
CLOSE
Current Station
Personal Weather Station
Location: Ojai, CA
Elevation: 2812 ft
Nearby Weather Stations

Elev 2812 ft 34.41 °N, 119.19 °W | Updated 42 minutes ago

Clear
Clear
67 °F
Feels Like 67 °F
N
0
Wind Variable Wind from WNW
Gusts 1.0 mph

Today
High -- | Low -- °F
--% Chance of Precip.
Yesterday
High -- | Low -- °F
Precip. -- in
6:46 AM 7:16 PM
Waxing Gibbous, 78% visible
Pressure 30.01 in
Visibility 0.2 miles
Clouds
Dew Point 35 °F
Humidity 31%
Rainfall in
Snow Depth Not available.
UV Not available.
Pollen 10.00 out of 12
Air Quality Not available.
Flu Activity Not available.
METAR KOXR 300851Z AUTO 00000KT 1/4SM FG VV002 13/12 A3001 RMK AO2 SLP161 T01280122 56003

More Conditions Fewer Conditions

Pressure 30.01 in
Visibility 0.2 miles
Clouds
Dew Point 35 °F
Humidity 31%
Rainfall in
Snow Depth Not available.
UV Not available.
Pollen 10.00 out of 12
Air Quality Not available.
Flu Activity Not available.
METAR KOXR 300851Z AUTO 00000KT 1/4SM FG VV002 13/12 A3001 RMK AO2 SLP161 T01280122 56003

More Conditions Fewer Conditions

10-Day Weather Forecast

Almanac

Astronomy

Mar. 30, 2015 Rise Set
Actual Time
Civil Twilight
Nautical Twilight
Astronomical Twilight
Moon
Length of Visible Light
Length of Day
Tomorrow will be .
, % of the Moon is Illuminated

Today's Extremes

State Highs State Lows

Community

WunderPhotos

Upload Photos

1,809,451 photos uploaded!

WunderBlogs® & News

Nearby

Air Quality

  Air Quality AQ Index Pollutant
Not available.

Snow Depth

Station Depth Elevation

Earthquake Activity

City Distance Mag. Time & Date
Minimum magnitude displayed is 2.5.

Coastal Water Temperatures

Place Temperature

Stations

Nearby Weather Stations

Station Location Temp. Windchill Dew Point Humidity Wind Precip. Elev Updated Type